createdAt,value
2018-11-29T00:00:24.523Z,5.70
2018-11-29T00:02:52.963Z,5.70
2018-11-29T00:05:22.456Z,5.70
2018-11-29T00:07:51.301Z,5.70
2018-11-29T00:10:23.646Z,5.70
2018-11-29T00:12:53.535Z,5.70
2018-11-29T00:15:22.902Z,5.70
2018-11-29T00:17:52.131Z,5.80
2018-11-29T00:20:21.672Z,5.80
2018-11-29T00:22:51.189Z,5.80
2018-11-29T00:25:20.440Z,5.80
2018-11-29T00:27:49.334Z,5.80
2018-11-29T00:30:19.494Z,5.70
2018-11-29T00:32:48.559Z,5.80
2018-11-29T00:35:18.312Z,5.70
2018-11-29T00:37:47.367Z,5.70
2018-11-29T00:40:18.029Z,5.60
2018-11-29T00:42:46.470Z,5.60
2018-11-29T00:45:15.769Z,5.60
2018-11-29T00:47:44.748Z,5.60
2018-11-29T00:50:14.968Z,5.70
2018-11-29T00:52:44.552Z,5.70
2018-11-29T00:55:18.032Z,5.70
2018-11-29T00:57:46.656Z,5.70
2018-11-29T01:00:19.183Z,5.70
2018-11-29T01:02:47.694Z,5.90
2018-11-29T01:05:16.168Z,6.00
2018-11-29T01:07:45.289Z,6.10
2018-11-29T01:10:16.336Z,6.10
2018-11-29T01:12:45.893Z,6.20
2018-11-29T01:15:15.887Z,6.30
2018-11-29T01:17:45.250Z,6.40
2018-11-29T01:20:14.556Z,6.40
2018-11-29T01:22:43.681Z,6.40
2018-11-29T01:25:13.235Z,6.50
2018-11-29T01:27:42.833Z,6.50
2018-11-29T01:30:14.094Z,6.50
2018-11-29T01:32:43.133Z,6.50
2018-11-29T01:35:13.125Z,6.40
2018-11-29T01:37:41.803Z,6.30
2018-11-29T01:40:16.787Z,6.20
2018-11-29T01:42:46.420Z,6.20
2018-11-29T01:45:15.318Z,6.10
2018-11-29T01:47:43.783Z,6.10
2018-11-29T01:50:12.810Z,6.00
2018-11-29T01:52:41.899Z,6.00
2018-11-29T01:55:10.484Z,6.00
2018-11-29T01:57:39.016Z,6.00
2018-11-29T02:00:14.177Z,5.90
2018-11-29T02:02:42.741Z,5.90
2018-11-29T02:05:12.244Z,5.90
2018-11-29T02:07:40.887Z,5.90
2018-11-29T02:10:16.719Z,5.90
2018-11-29T02:12:45.297Z,5.80
2018-11-29T02:15:13.885Z,5.80
2018-11-29T02:17:42.415Z,5.80
2018-11-29T02:20:13.955Z,5.80
2018-11-29T02:22:42.560Z,5.70
2018-11-29T02:25:11.008Z,5.70
2018-11-29T02:27:39.786Z,5.70
2018-11-29T02:30:24.007Z,5.70
2018-11-29T02:32:53.334Z,5.80
2018-11-29T02:35:22.200Z,5.70
2018-11-29T02:37:51.054Z,5.70
2018-11-29T02:40:20.110Z,5.70
2018-11-29T02:42:49.850Z,5.70
2018-11-29T02:45:23.281Z,5.70
2018-11-29T02:47:51.804Z,5.70
2018-11-29T02:50:20.381Z,5.70
2018-11-29T02:52:48.925Z,5.70
2018-11-29T02:55:17.485Z,5.70
2018-11-29T02:57:46.113Z,5.60
2018-11-29T03:00:17.192Z,5.60
2018-11-29T03:02:45.742Z,5.60
2018-11-29T03:05:14.438Z,5.70
2018-11-29T03:07:43.095Z,5.80
2018-11-29T03:10:12.637Z,5.80
2018-11-29T03:12:41.581Z,5.90
2018-11-29T03:15:15.605Z,5.90
2018-11-29T03:17:44.663Z,5.90
2018-11-29T03:20:13.769Z,5.80
2018-11-29T03:22:42.521Z,5.80
2018-11-29T03:25:12.684Z,5.80
2018-11-29T03:27:41.133Z,5.70
2018-11-29T03:30:13.760Z,5.70
2018-11-29T03:32:42.372Z,5.60
2018-11-29T03:35:12.193Z,5.60
2018-11-29T03:37:40.711Z,5.50
2018-11-29T03:40:11.610Z,5.50
2018-11-29T03:42:39.367Z,5.50
2018-11-29T03:45:08.035Z,5.60
2018-11-29T03:47:35.859Z,5.60
2018-11-29T03:50:06.244Z,5.60
2018-11-29T03:52:35.005Z,5.50
2018-11-29T03:55:03.068Z,5.60
2018-11-29T03:57:30.942Z,5.70
2018-11-29T03:59:59.680Z,5.70
2018-11-29T04:02:28.546Z,5.60
2018-11-29T04:04:57.115Z,5.60
2018-11-29T04:07:25.827Z,5.60
2018-11-29T04:09:54.951Z,5.50
2018-11-29T04:12:22.732Z,5.50
2018-11-29T04:14:50.631Z,5.50
2018-11-29T04:17:18.292Z,5.40
2018-11-29T04:19:45.930Z,5.40
2018-11-29T04:22:13.641Z,5.30
2018-11-29T04:24:41.272Z,5.20
2018-11-29T04:27:09.016Z,5.20
2018-11-29T04:29:36.756Z,5.20
2018-11-29T04:32:04.481Z,5.20
2018-11-29T04:34:32.195Z,5.10
2018-11-29T04:36:59.848Z,5.10
2018-11-29T04:39:27.463Z,5.10
2018-11-29T04:41:55.180Z,5.00
2018-11-29T04:44:22.928Z,5.00
2018-11-29T04:46:51.412Z,5.00
2018-11-29T04:49:19.164Z,5.00
2018-11-29T04:51:46.974Z,5.00
2018-11-29T04:54:14.646Z,4.90
2018-11-29T04:56:42.304Z,4.90
2018-11-29T04:59:09.988Z,4.90
2018-11-29T05:01:38.034Z,4.90
2018-11-29T05:04:06.092Z,4.90
2018-11-29T05:06:33.828Z,4.90
2018-11-29T05:09:01.703Z,4.80
2018-11-29T05:11:29.374Z,4.80
2018-11-29T05:13:57.178Z,4.80
2018-11-29T05:16:24.861Z,4.80
2018-11-29T05:18:52.480Z,4.80
2018-11-29T05:21:20.117Z,4.80
2018-11-29T05:23:47.755Z,4.70
2018-11-29T05:26:15.447Z,4.70
2018-11-29T05:28:43.139Z,4.70
2018-11-29T05:31:10.802Z,4.70
2018-11-29T05:33:38.412Z,4.60
2018-11-29T05:36:06.252Z,4.60
2018-11-29T05:38:33.962Z,4.60
2018-11-29T05:41:01.915Z,4.50
2018-11-29T05:43:29.675Z,4.50
2018-11-29T05:45:57.365Z,4.50
2018-11-29T05:48:25.051Z,4.50
2018-11-29T05:50:52.710Z,4.50
2018-11-29T05:53:20.307Z,4.50
2018-11-29T05:55:47.960Z,4.50
2018-11-29T05:58:15.732Z,4.50
2018-11-29T06:00:43.667Z,4.50
2018-11-29T06:03:11.294Z,4.50
2018-11-29T06:05:39.501Z,4.50
2018-11-29T06:08:06.688Z,4.50
2018-11-29T06:10:34.323Z,4.50
2018-11-29T06:13:02.119Z,4.40
2018-11-29T06:15:29.767Z,4.40
2018-11-29T06:17:57.401Z,4.50
2018-11-29T06:20:25.957Z,4.60
2018-11-29T06:22:54.434Z,4.70
2018-11-29T06:25:22.826Z,4.70
2018-11-29T06:27:51.255Z,4.80
2018-11-29T06:30:20.737Z,4.80
2018-11-29T06:32:50.317Z,4.80
2018-11-29T06:35:18.826Z,4.90
2018-11-29T06:37:47.355Z,4.90
2018-11-29T06:40:16.643Z,4.90
2018-11-29T06:42:45.236Z,4.90
2018-11-29T06:45:17.630Z,4.90
2018-11-29T06:47:46.513Z,4.90
2018-11-29T06:50:15.156Z,4.90
2018-11-29T06:52:44.709Z,4.90
2018-11-29T06:55:18.327Z,4.90
2018-11-29T06:57:46.736Z,4.90
2018-11-29T07:00:19.365Z,4.90
2018-11-29T07:02:47.753Z,4.90
2018-11-29T07:05:16.140Z,4.90
2018-11-29T07:07:44.916Z,5.00
2018-11-29T07:10:13.361Z,5.00
2018-11-29T07:12:41.796Z,5.00
2018-11-29T07:15:13.291Z,5.00
2018-11-29T07:17:43.065Z,5.10
2018-11-29T07:20:14.872Z,5.10
2018-11-29T07:22:43.372Z,5.10
2018-11-29T07:25:11.920Z,5.10
2018-11-29T07:27:40.423Z,5.10
2018-11-29T07:30:11.364Z,5.10
2018-11-29T07:32:39.748Z,5.10
2018-11-29T07:35:09.864Z,5.10
2018-11-29T07:37:38.675Z,5.00
2018-11-29T07:40:10.208Z,4.90
2018-11-29T07:42:38.339Z,4.90
2018-11-29T07:45:10.566Z,4.80
2018-11-29T07:47:38.984Z,4.80
2018-11-29T07:50:12.637Z,4.80
2018-11-29T07:52:41.084Z,4.80
2018-11-29T07:55:11.219Z,4.90
2018-11-29T07:57:39.773Z,4.90
2018-11-29T08:00:11.165Z,5.00
2018-11-29T08:02:39.512Z,5.00
2018-11-29T08:05:10.500Z,5.10
2018-11-29T08:07:39.558Z,5.20
2018-11-29T08:10:09.769Z,5.30
2018-11-29T08:12:38.227Z,5.40
2018-11-29T08:15:09.638Z,5.50
2018-11-29T08:17:38.063Z,5.50
2018-11-29T08:20:09.832Z,5.60
2018-11-29T08:22:38.253Z,5.70
2018-11-29T08:25:07.263Z,5.80
2018-11-29T08:27:35.748Z,5.90
2018-11-29T08:30:06.132Z,5.90
2018-11-29T08:32:34.544Z,6.00
2018-11-29T08:35:02.968Z,6.10
2018-11-29T08:37:31.461Z,6.20
2018-11-29T08:39:59.951Z,6.20
2018-11-29T08:42:28.405Z,6.30
2018-11-29T08:44:56.920Z,6.40
2018-11-29T08:47:25.439Z,6.50
2018-11-29T08:49:53.873Z,6.50
2018-11-29T08:52:22.484Z,6.60
2018-11-29T08:54:51.086Z,6.60
2018-11-29T08:57:19.540Z,6.70
2018-11-29T08:59:47.997Z,6.70
2018-11-29T09:02:16.524Z,6.80
2018-11-29T09:04:45.049Z,6.80
2018-11-29T09:07:13.484Z,6.80
2018-11-29T09:09:41.953Z,6.80
2018-11-29T09:12:10.449Z,6.80
2018-11-29T09:14:38.923Z,6.80
2018-11-29T09:17:07.404Z,6.90
2018-11-29T09:19:37.463Z,6.90
2018-11-29T09:22:04.624Z,7.00
2018-11-29T09:24:33.018Z,7.10
2018-11-29T09:27:01.744Z,7.20
2018-11-29T09:29:30.387Z,7.30
2018-11-29T09:31:58.922Z,7.50
2018-11-29T09:34:27.299Z,7.60
2018-11-29T09:36:55.741Z,7.70
2018-11-29T09:39:24.148Z,7.90
2018-11-29T09:41:52.589Z,8.00
2018-11-29T09:44:22.098Z,8.10
2018-11-29T09:46:50.522Z,8.20
2018-11-29T09:49:19.313Z,8.40
2018-11-29T09:51:47.699Z,8.50
2018-11-29T09:54:16.133Z,8.60
2018-11-29T09:56:44.783Z,8.70
2018-11-29T09:59:13.179Z,8.80
2018-11-29T10:01:41.653Z,8.90
2018-11-29T10:04:10.060Z,8.90
2018-11-29T10:06:38.683Z,8.90
2018-11-29T10:09:09.940Z,8.90
2018-11-29T10:11:38.369Z,8.90
2018-11-29T10:14:06.951Z,8.80
2018-11-29T10:16:35.353Z,8.80
2018-11-29T10:19:03.834Z,8.80
2018-11-29T10:21:32.204Z,8.70
2018-11-29T10:24:00.700Z,8.70
2018-11-29T10:26:29.095Z,8.60
2018-11-29T10:28:57.803Z,8.50
2018-11-29T10:31:26.222Z,8.40
2018-11-29T10:33:54.631Z,8.40
2018-11-29T10:36:23.361Z,8.30
2018-11-29T10:38:51.852Z,8.30
2018-11-29T10:41:20.408Z,8.30
2018-11-29T10:43:48.937Z,8.30
2018-11-29T10:46:17.357Z,8.40
2018-11-29T10:48:45.755Z,8.40
2018-11-29T10:51:14.162Z,8.40
2018-11-29T10:53:42.555Z,8.40
2018-11-29T10:56:10.984Z,8.50
2018-11-29T10:58:39.408Z,8.60
2018-11-29T11:01:13.301Z,8.70
2018-11-29T11:03:41.737Z,8.80
2018-11-29T11:06:10.289Z,9.00
2018-11-29T11:08:38.812Z,9.20
2018-11-29T11:11:07.903Z,9.30
2018-11-29T11:13:37.871Z,9.40
2018-11-29T11:16:07.009Z,9.60
2018-11-29T11:18:35.993Z,9.60
2018-11-29T11:21:04.532Z,9.60
2018-11-29T11:23:33.065Z,9.70
2018-11-29T11:26:01.647Z,9.80
2018-11-29T11:28:30.430Z,9.90
2018-11-29T11:30:59.042Z,9.90
2018-11-29T11:33:27.552Z,10.00
2018-11-29T11:35:55.946Z,10.00
2018-11-29T11:38:24.459Z,10.10
2018-11-29T11:40:52.998Z,10.00
2018-11-29T11:43:21.484Z,10.00
2018-11-29T11:45:50.639Z,10.00
2018-11-29T11:48:19.108Z,10.00
2018-11-29T11:50:47.592Z,10.00
2018-11-29T11:53:16.040Z,10.00
2018-11-29T11:55:44.441Z,10.00
2018-11-29T11:58:12.836Z,10.00
2018-11-29T12:00:40.468Z,9.90
2018-11-29T12:03:12.843Z,9.70
2018-11-29T12:05:40.512Z,9.70
2018-11-29T12:08:08.291Z,9.50
2018-11-29T12:10:36.201Z,9.50
2018-11-29T12:13:04.059Z,9.40
2018-11-29T12:15:31.962Z,9.30
2018-11-29T12:17:59.603Z,9.30
2018-11-29T12:20:27.513Z,9.20
2018-11-29T12:22:55.154Z,9.10
2018-11-29T12:25:22.959Z,9.20
2018-11-29T12:27:51.043Z,9.10
2018-11-29T12:30:24.530Z,9.10
2018-11-29T12:32:52.880Z,9.00
2018-11-29T12:35:21.273Z,9.00
2018-11-29T12:37:49.647Z,9.00
2018-11-29T12:40:18.085Z,9.00
2018-11-29T12:42:46.451Z,9.10
2018-11-29T12:45:15.256Z,9.00
2018-11-29T12:47:44.259Z,9.00
2018-11-29T12:50:19.593Z,9.00
2018-11-29T12:52:48.106Z,9.00
2018-11-29T12:55:17.616Z,9.00
2018-11-29T12:57:46.071Z,9.10
2018-11-29T13:00:16.787Z,9.10
2018-11-29T13:02:46.492Z,9.20
2018-11-29T13:05:14.996Z,9.30
2018-11-29T13:07:43.559Z,9.30
2018-11-29T13:10:12.785Z,9.30
2018-11-29T13:12:41.169Z,9.20
2018-11-29T13:15:14.028Z,9.20
2018-11-29T13:17:42.657Z,9.20
2018-11-29T13:20:13.841Z,9.20
2018-11-29T13:22:42.284Z,9.20
2018-11-29T13:25:13.971Z,9.10
2018-11-29T13:27:42.663Z,9.20
2018-11-29T13:30:12.465Z,9.20
2018-11-29T13:32:41.132Z,9.10
2018-11-29T13:35:17.636Z,9.20
2018-11-29T13:37:48.547Z,9.20
2018-11-29T13:42:45.366Z,9.20
2018-11-29T13:45:14.018Z,9.20
2018-11-29T13:47:42.701Z,9.10
2018-11-29T13:50:12.408Z,9.20
2018-11-29T13:52:40.808Z,9.10
2018-11-29T13:55:10.493Z,9.10
2018-11-29T13:57:39.041Z,9.10
2018-11-29T14:00:14.638Z,9.10
2018-11-29T14:02:46.943Z,9.10
2018-11-29T14:05:12.150Z,9.10
2018-11-29T14:07:40.562Z,9.10
2018-11-29T14:10:13.552Z,9.00
2018-11-29T14:12:42.022Z,9.00
2018-11-29T14:15:12.979Z,9.00
2018-11-29T14:17:41.603Z,9.00
2018-11-29T14:20:11.076Z,9.00
2018-11-29T14:22:39.488Z,8.90
2018-11-29T14:25:10.207Z,8.90
2018-11-29T14:27:38.691Z,8.90
2018-11-29T14:30:24.845Z,8.90
2018-11-29T14:32:54.175Z,8.90
2018-11-29T14:35:22.578Z,8.90
2018-11-29T14:37:51.107Z,8.90
2018-11-29T14:40:23.763Z,8.90
2018-11-29T14:42:52.166Z,8.90
2018-11-29T14:45:27.477Z,8.90
2018-11-29T14:47:56.286Z,8.90
2018-11-29T14:50:37.177Z,8.90
2018-11-29T14:53:06.746Z,8.90
2018-11-29T14:55:35.929Z,8.90
2018-11-29T14:58:04.391Z,8.80
2018-11-29T15:00:32.817Z,8.80
2018-11-29T15:03:02.776Z,8.80
2018-11-29T15:05:32.194Z,8.80
2018-11-29T15:08:00.580Z,8.80
2018-11-29T15:10:29.173Z,8.80
2018-11-29T15:12:57.654Z,8.80
2018-11-29T15:15:26.046Z,8.80
2018-11-29T15:17:54.809Z,8.80
2018-11-29T15:20:24.617Z,8.70
2018-11-29T15:22:53.325Z,8.70
2018-11-29T15:25:21.941Z,8.70
2018-11-29T15:27:50.460Z,8.70
2018-11-29T15:30:20.559Z,8.70
2018-11-29T15:32:48.715Z,8.70
2018-11-29T15:35:17.125Z,8.70
2018-11-29T15:37:45.620Z,8.60
2018-11-29T15:40:16.227Z,8.60
2018-11-29T15:42:44.712Z,8.60
2018-11-29T15:45:18.489Z,8.60
2018-11-29T15:47:47.044Z,8.60
2018-11-29T15:50:16.026Z,8.60
2018-11-29T15:52:44.399Z,8.60
2018-11-29T15:55:14.830Z,8.60
2018-11-29T15:57:43.484Z,8.60
2018-11-29T16:00:19.260Z,8.60
2018-11-29T16:02:48.338Z,8.60
2018-11-29T16:05:16.773Z,8.60
2018-11-29T16:07:45.323Z,8.60
2018-11-29T16:10:16.876Z,8.60
2018-11-29T16:12:45.359Z,8.50
2018-11-29T16:15:15.030Z,8.60
2018-11-29T16:17:44.184Z,8.60
2018-11-29T16:20:14.956Z,8.60
2018-11-29T16:22:43.388Z,8.60
2018-11-29T16:25:12.237Z,8.60
2018-11-29T16:27:40.593Z,8.60
2018-11-29T16:30:13.147Z,8.50
2018-11-29T16:32:41.810Z,8.60
2018-11-29T16:35:10.284Z,8.50
2018-11-29T16:37:39.440Z,8.50
2018-11-29T16:40:09.003Z,8.50
2018-11-29T16:42:37.471Z,8.50
2018-11-29T16:45:10.437Z,8.40
2018-11-29T16:47:38.997Z,8.40
2018-11-29T16:50:09.804Z,8.40
2018-11-29T16:52:38.238Z,8.40
2018-11-29T16:55:07.968Z,8.40
2018-11-29T16:57:36.547Z,8.40
2018-11-29T17:00:10.621Z,8.40
2018-11-29T17:02:39.104Z,8.30
2018-11-29T17:05:09.169Z,8.40
2018-11-29T17:07:37.660Z,8.40
2018-11-29T17:10:08.849Z,8.40
2018-11-29T17:12:37.366Z,8.30
2018-11-29T17:15:10.283Z,8.30
2018-11-29T17:17:38.787Z,8.20
2018-11-29T17:20:10.963Z,8.20
2018-11-29T17:22:39.394Z,8.20
2018-11-29T17:25:09.458Z,8.10
2018-11-29T17:27:38.091Z,8.10
2018-11-29T17:30:18.769Z,8.10
2018-11-29T17:32:47.702Z,8.10
2018-11-29T17:35:16.227Z,8.00
2018-11-29T17:37:44.747Z,8.00
2018-11-29T17:40:14.402Z,8.00
2018-11-29T17:42:43.033Z,8.00
2018-11-29T17:45:27.308Z,7.90
2018-11-29T17:47:58.430Z,7.90
2018-11-29T17:50:29.638Z,7.90
2018-11-29T17:52:58.259Z,7.90
2018-11-29T17:55:26.767Z,7.90
2018-11-29T17:57:55.220Z,7.90
2018-11-29T18:00:26.965Z,7.90
2018-11-29T18:02:55.573Z,7.90
2018-11-29T18:05:24.131Z,7.90
2018-11-29T18:07:52.631Z,7.90
2018-11-29T18:10:24.100Z,7.90
2018-11-29T18:13:03.178Z,7.80
2018-11-29T18:15:33.476Z,7.90
2018-11-29T18:18:02.042Z,8.00
2018-11-29T18:20:30.475Z,8.00
2018-11-29T18:22:59.025Z,8.10
2018-11-29T18:25:27.439Z,8.10
2018-11-29T18:27:55.935Z,8.10
2018-11-29T18:30:24.397Z,8.20
2018-11-29T18:32:52.871Z,8.20
2018-11-29T18:35:21.629Z,8.20
2018-11-29T18:37:50.255Z,8.30
2018-11-29T18:40:22.479Z,8.40
2018-11-29T18:42:54.355Z,8.40
2018-11-29T18:45:22.963Z,8.40
2018-11-29T18:47:52.799Z,8.40
2018-11-29T18:50:23.435Z,8.40
2018-11-29T18:52:52.581Z,8.40
2018-11-29T18:55:24.367Z,8.30
2018-11-29T18:57:53.311Z,8.30
2018-11-29T19:00:27.836Z,8.30
2018-11-29T19:02:57.079Z,8.30
2018-11-29T19:05:25.232Z,8.30
2018-11-29T19:07:53.704Z,8.20
2018-11-29T19:10:22.698Z,8.20
2018-11-29T19:12:58.386Z,8.20
2018-11-29T19:15:26.913Z,8.10
2018-11-29T19:17:55.595Z,8.10
2018-11-29T19:20:24.049Z,8.10
2018-11-29T19:22:52.705Z,8.10
2018-11-29T19:25:21.336Z,8.10
2018-11-29T19:27:50.218Z,8.20
2018-11-29T19:30:21.109Z,8.10
2018-11-29T19:32:53.396Z,8.10
2018-11-29T19:35:21.898Z,8.20
2018-11-29T19:37:50.505Z,8.20
2018-11-29T19:40:19.039Z,8.30
2018-11-29T19:42:47.522Z,8.30
2018-11-29T19:45:16.417Z,8.30
2018-11-29T19:47:45.832Z,8.30
2018-11-29T19:50:18.053Z,8.20
2018-11-29T19:52:49.908Z,8.20
2018-11-29T19:55:21.740Z,8.20
2018-11-29T19:57:50.955Z,8.20
2018-11-29T20:00:20.505Z,8.20
2018-11-29T20:02:50.380Z,8.20
2018-11-29T20:05:19.707Z,8.20
2018-11-29T20:07:48.825Z,8.10
2018-11-29T20:10:18.444Z,8.10
2018-11-29T20:13:00.419Z,8.10
2018-11-29T20:15:29.582Z,8.10
2018-11-29T20:17:58.950Z,8.10
2018-11-29T20:20:28.104Z,8.10
2018-11-29T20:22:56.799Z,8.10
2018-11-29T20:25:26.533Z,8.10
2018-11-29T20:27:55.093Z,8.10
2018-11-29T20:30:24.330Z,8.20
2018-11-29T20:32:54.230Z,8.20
2018-11-29T20:35:23.112Z,8.10
2018-11-29T20:37:52.853Z,8.10
2018-11-29T20:40:23.721Z,8.10
2018-11-29T20:42:53.369Z,8.00
2018-11-29T20:45:27.542Z,8.00
2018-11-29T20:47:56.075Z,8.10
2018-11-29T20:50:26.206Z,8.10
2018-11-29T20:52:56.117Z,8.10
2018-11-29T20:55:30.019Z,8.00
2018-11-29T20:57:58.637Z,8.00
2018-11-29T21:00:27.089Z,8.00
2018-11-29T21:02:55.604Z,8.00
2018-11-29T21:05:25.215Z,8.00
2018-11-29T21:07:58.700Z,8.00
2018-11-29T21:10:27.366Z,8.00
2018-11-29T21:12:55.864Z,7.90
2018-11-29T21:15:25.010Z,7.90
2018-11-29T21:17:53.531Z,7.90
2018-11-29T21:20:22.272Z,7.90
2018-11-29T21:22:51.381Z,7.90
2018-11-29T21:25:22.353Z,7.80
2018-11-29T21:27:50.966Z,7.70
2018-11-29T21:30:19.518Z,7.70
2018-11-29T21:32:48.522Z,7.70
2018-11-29T21:35:20.179Z,7.70
2018-11-29T21:37:48.940Z,7.80
2018-11-29T21:40:32.648Z,7.80
2018-11-29T21:43:01.212Z,7.60
2018-11-29T21:45:30.773Z,7.70
2018-11-29T21:47:59.412Z,7.60
2018-11-29T21:50:28.022Z,7.50
2018-11-29T21:52:56.556Z,7.40
2018-11-29T21:55:25.107Z,7.30
2018-11-29T21:57:53.600Z,7.20
2018-11-29T22:00:22.918Z,7.20
2018-11-29T22:02:53.749Z,7.10
2018-11-29T22:05:22.382Z,7.10
2018-11-29T22:07:50.899Z,7.10
2018-11-29T22:10:19.452Z,7.00
2018-11-29T22:12:47.957Z,7.00
2018-11-29T22:15:16.553Z,7.00
2018-11-29T22:18:01.516Z,6.90
2018-11-29T22:20:24.625Z,6.90
2018-11-29T22:22:53.084Z,6.80
2018-11-29T22:25:21.592Z,6.90
2018-11-29T22:27:50.200Z,6.90
2018-11-29T22:30:18.680Z,7.00
2018-11-29T22:32:47.212Z,7.00
2018-11-29T22:35:15.664Z,6.90
2018-11-29T22:37:44.088Z,6.90
2018-11-29T22:40:12.568Z,6.90
2018-11-29T22:42:41.117Z,6.90
2018-11-29T22:45:09.724Z,6.80
2018-11-29T22:47:38.284Z,6.90
2018-11-29T22:50:07.941Z,7.00
2018-11-29T22:52:36.529Z,7.10
2018-11-29T22:55:05.641Z,7.10
2018-11-29T22:57:34.124Z,7.10
2018-11-29T23:00:02.793Z,7.20
2018-11-29T23:02:31.362Z,7.20
2018-11-29T23:04:59.868Z,7.20
2018-11-29T23:07:28.688Z,7.20
2018-11-29T23:09:57.161Z,7.20
2018-11-29T23:12:25.778Z,7.20
2018-11-29T23:14:54.536Z,7.10
2018-11-29T23:17:23.032Z,7.10
2018-11-29T23:19:51.536Z,7.10
2018-11-29T23:22:20.012Z,7.10
2018-11-29T23:24:48.608Z,7.10
2018-11-29T23:27:17.145Z,7.20
2018-11-29T23:29:45.754Z,7.20
2018-11-29T23:32:14.315Z,7.20
2018-11-29T23:34:42.844Z,7.20
2018-11-29T23:37:11.441Z,7.20
2018-11-29T23:39:40.003Z,7.20
2018-11-29T23:42:08.647Z,7.10
2018-11-29T23:44:37.452Z,7.10
2018-11-29T23:47:06.130Z,7.00
2018-11-29T23:49:34.759Z,7.00
2018-11-29T23:52:03.205Z,7.00
2018-11-29T23:54:31.872Z,7.10
2018-11-29T23:57:00.368Z,7.00
2018-11-29T23:59:28.797Z,7.00
